createdAt,value
2018-07-02T00:00:39.527Z,5.23
2018-07-02T00:03:09.204Z,5.63
2018-07-02T00:05:50.563Z,4.17
2018-07-02T00:08:20.196Z,8.50
2018-07-02T00:10:51.397Z,3.30
2018-07-02T00:13:21.275Z,4.97
2018-07-02T00:15:51.107Z,3.57
2018-07-02T00:18:21.110Z,3.70
2018-07-02T00:20:50.855Z,5.30
2018-07-02T00:23:20.946Z,3.17
2018-07-02T00:25:50.867Z,4.37
2018-07-02T00:28:20.832Z,4.23
2018-07-02T00:30:50.752Z,3.90
2018-07-02T00:33:21.251Z,3.87
2018-07-02T00:35:51.241Z,4.20
2018-07-02T00:38:21.790Z,4.17
2018-07-02T00:40:51.807Z,5.03
2018-07-02T00:43:21.620Z,2.57
2018-07-02T00:45:51.594Z,2.67
2018-07-02T00:48:21.359Z,2.73
2018-07-02T00:50:51.483Z,3.40
2018-07-02T00:53:21.407Z,2.60
2018-07-02T00:55:51.605Z,3.33
2018-07-02T00:58:21.680Z,3.43
2018-07-02T01:00:52.291Z,4.50
2018-07-02T01:03:22.268Z,3.00
2018-07-02T01:05:52.044Z,3.93
2018-07-02T01:08:21.895Z,3.90
2018-07-02T01:10:51.843Z,4.40
2018-07-02T01:13:21.508Z,3.77
2018-07-02T01:15:51.208Z,4.27
2018-07-02T01:18:20.910Z,3.80
2018-07-02T01:20:50.851Z,2.73
2018-07-02T01:23:20.284Z,4.93
2018-07-02T01:25:50.003Z,3.50
2018-07-02T01:28:20.304Z,3.00
2018-07-02T01:30:50.052Z,3.57
2018-07-02T01:33:19.991Z,3.47
2018-07-02T01:35:49.821Z,4.47
2018-07-02T01:38:20.371Z,2.60
2018-07-02T01:40:50.321Z,3.47
2018-07-02T01:43:20.386Z,3.00
2018-07-02T01:45:50.449Z,3.77
2018-07-02T01:48:20.556Z,4.00
2018-07-02T01:50:50.258Z,3.27
2018-07-02T01:53:20.387Z,2.63
2018-07-02T01:55:50.575Z,3.90
2018-07-02T01:58:20.733Z,6.97
2018-07-02T02:00:50.883Z,2.60
2018-07-02T02:03:20.376Z,4.13
2018-07-02T02:05:50.644Z,2.10
2018-07-02T02:08:20.809Z,5.27
2018-07-02T02:10:50.651Z,2.97
2018-07-02T02:13:20.639Z,3.50
2018-07-02T02:15:50.579Z,4.87
2018-07-02T02:18:20.403Z,3.40
2018-07-02T02:20:50.431Z,3.23
2018-07-02T02:23:20.504Z,3.07
2018-07-02T02:25:50.259Z,4.10
2018-07-02T02:28:20.055Z,6.10
2018-07-02T02:30:49.775Z,2.43
2018-07-02T02:33:20.151Z,5.27
2018-07-02T02:35:49.977Z,3.53
2018-07-02T02:38:19.797Z,6.60
2018-07-02T02:40:49.713Z,4.70
2018-07-02T02:43:19.675Z,4.43
2018-07-02T02:45:49.637Z,7.37
2018-07-02T02:48:19.649Z,3.23
2018-07-02T02:50:49.919Z,3.90
2018-07-02T02:53:19.667Z,4.20
2018-07-02T02:55:49.572Z,3.57
2018-07-02T02:58:19.696Z,4.13
2018-07-02T03:00:49.833Z,3.33
2018-07-02T03:03:19.284Z,2.90
2018-07-02T03:05:49.155Z,2.97
2018-07-02T03:08:19.359Z,3.43
2018-07-02T03:10:49.388Z,3.13
2018-07-02T03:13:19.849Z,2.37
2018-07-02T03:15:49.856Z,3.07
2018-07-02T03:18:19.784Z,2.87
2018-07-02T03:20:50.520Z,4.63
2018-07-02T03:23:20.680Z,3.47
2018-07-02T03:25:51.296Z,2.60
2018-07-02T03:28:21.081Z,2.03
2018-07-02T03:30:51.118Z,3.00
2018-07-02T03:33:21.779Z,3.63
2018-07-02T03:35:51.919Z,2.80
2018-07-02T03:38:21.924Z,4.53
2018-07-02T03:40:51.952Z,3.27
2018-07-02T03:43:21.732Z,3.47
2018-07-02T03:45:51.484Z,2.43
2018-07-02T03:48:21.058Z,3.40
2018-07-02T03:50:51.263Z,3.27
2018-07-02T03:53:21.416Z,3.07
2018-07-02T03:55:51.537Z,2.83
2018-07-02T03:58:21.468Z,2.13
2018-07-02T04:00:51.374Z,3.43
2018-07-02T04:03:21.653Z,1.93
2018-07-02T04:05:51.585Z,3.53
2018-07-02T04:08:21.964Z,1.90
2018-07-02T04:10:51.879Z,3.57
2018-07-02T04:13:21.587Z,1.97
2018-07-02T04:15:51.703Z,1.97
2018-07-02T04:18:21.195Z,2.37
2018-07-02T04:20:51.949Z,2.53
2018-07-02T04:23:21.972Z,4.20
2018-07-02T04:25:52.164Z,2.57
2018-07-02T04:28:22.100Z,2.00
2018-07-02T04:30:52.246Z,3.27
2018-07-02T04:33:22.168Z,2.00
2018-07-02T04:35:51.897Z,5.03
2018-07-02T04:38:21.836Z,3.00
2018-07-02T04:40:51.693Z,3.80
2018-07-02T04:43:22.151Z,2.67
2018-07-02T04:45:52.243Z,2.33
2018-07-02T04:48:22.511Z,3.03
2018-07-02T04:50:52.555Z,3.50
2018-07-02T04:53:22.537Z,1.97
2018-07-02T04:55:52.495Z,2.63
2018-07-02T04:58:22.580Z,2.13
2018-07-02T05:00:52.605Z,1.70
2018-07-02T05:03:22.427Z,2.17
2018-07-02T05:05:52.324Z,2.97
2018-07-02T05:08:22.192Z,2.00
2018-07-02T05:10:52.031Z,2.57
2018-07-02T05:13:21.799Z,455.77
2018-07-02T05:15:51.711Z,615.30
2018-07-02T05:18:22.303Z,1999.90
2018-07-02T05:20:52.356Z,1440.97
2018-07-02T05:23:22.706Z,700.55
2018-07-02T05:25:53.144Z,1344.72
2018-07-02T05:28:23.457Z,1163.03
2018-07-02T05:30:53.808Z,1145.68
2018-07-02T05:33:24.136Z,492.57
2018-07-02T05:35:54.484Z,65.22
2018-07-02T05:38:24.856Z,19.20
2018-07-02T05:40:55.187Z,1.85
2018-07-02T05:43:25.496Z,4.50
2018-07-02T05:45:55.772Z,2.35
2018-07-02T05:48:26.102Z,1.60
2018-07-02T05:50:56.391Z,4.15
2018-07-02T05:53:26.671Z,2.12
2018-07-02T05:55:56.954Z,2.17
2018-07-02T05:58:27.304Z,2.40
2018-07-02T06:00:57.592Z,2.30
2018-07-02T06:03:27.889Z,2.80
2018-07-02T06:05:57.944Z,1.77
2018-07-02T06:08:28.180Z,4.20
2018-07-02T06:10:58.491Z,2.17
2018-07-02T06:13:28.508Z,1.80
2018-07-02T06:15:58.845Z,1.77
2018-07-02T06:18:28.613Z,1.83
2018-07-02T06:20:58.875Z,1.50
2018-07-02T06:23:29.303Z,1.25
2018-07-02T06:25:59.296Z,1.57
2018-07-02T06:28:29.603Z,1.20
2018-07-02T06:30:59.894Z,2.45
2018-07-02T06:33:30.184Z,1.50
2018-07-02T06:36:00.456Z,1.40
2018-07-02T06:38:30.740Z,2.55
2018-07-02T06:41:01.072Z,1.92
2018-07-02T06:43:31.418Z,2.10
2018-07-02T06:46:01.756Z,2.35
2018-07-02T06:48:31.846Z,2.47
2018-07-02T06:51:01.980Z,1.97
2018-07-02T06:53:32.096Z,1.40
2018-07-02T06:56:02.080Z,1.83
2018-07-02T06:58:32.084Z,1.30
2018-07-02T07:01:02.064Z,3.17
2018-07-02T07:03:31.760Z,1.40
2018-07-02T07:06:01.524Z,1.33
2018-07-02T07:08:31.609Z,2.03
2018-07-02T07:11:01.867Z,0.93
2018-07-02T07:13:31.860Z,1.27
2018-07-02T07:16:01.918Z,1.30
2018-07-02T07:18:31.969Z,1.83
2018-07-02T07:21:02.010Z,1.33
2018-07-02T07:23:32.060Z,1.43
2018-07-02T07:26:02.060Z,1.57
2018-07-02T07:28:32.076Z,1.23
2018-07-02T07:31:02.065Z,3.23
2018-07-02T07:33:32.156Z,1.20
2018-07-02T07:36:02.196Z,2.20
2018-07-02T07:38:34.044Z,3.13
2018-07-02T07:41:03.792Z,2.60
2018-07-02T07:43:33.813Z,3.30
2018-07-02T07:46:04.124Z,1.98
2018-07-02T07:48:34.461Z,2.90
2018-07-02T07:53:45.556Z,2.10
2018-07-02T07:56:15.295Z,1.07
2018-07-02T07:58:45.616Z,1.60
2018-07-02T08:01:15.934Z,2.50
2018-07-02T08:03:46.058Z,3.27
2018-07-02T08:06:16.536Z,1.55
2018-07-02T08:08:46.683Z,1.37
2018-07-02T08:11:16.752Z,1.20
2018-07-02T08:13:46.907Z,1.50
2018-07-02T08:16:17.045Z,1.93
2018-07-02T08:18:47.183Z,1.10
2018-07-02T08:21:17.480Z,2.47
2018-07-02T08:23:47.487Z,1.10
2018-07-02T08:26:17.806Z,1.37
2018-07-02T08:28:48.127Z,2.62
2018-07-02T08:31:18.832Z,2.65
2018-07-02T08:33:49.184Z,1.47
2018-07-02T08:36:19.537Z,1.17
2018-07-02T08:38:49.859Z,1.25
2018-07-02T08:41:20.170Z,1.52
2018-07-02T08:43:50.458Z,1.80
2018-07-02T08:46:20.780Z,2.40
2018-07-02T08:48:50.792Z,1.30
2018-07-02T08:51:20.872Z,1.20
2018-07-02T08:53:51.085Z,1.20
2018-07-02T08:56:21.495Z,1.80
2018-07-02T08:58:52.227Z,1.90
2018-07-02T09:01:22.620Z,2.05
2018-07-02T09:03:52.890Z,1.80
2018-07-02T09:06:23.189Z,1.90
2018-07-02T09:08:53.514Z,2.00
2018-07-02T09:11:23.813Z,2.90
2018-07-02T09:16:40.655Z,1.50
2018-07-02T09:19:10.913Z,1.35
2018-07-02T09:21:41.248Z,2.25
2018-07-02T09:24:11.517Z,1.87
2018-07-02T09:26:41.846Z,1.25
2018-07-02T09:29:12.133Z,1.25
2018-07-02T09:31:42.460Z,1.22
2018-07-02T09:34:12.740Z,1.62
2018-07-02T09:36:43.060Z,1.12
2018-07-02T09:39:13.992Z,1.80
2018-07-02T09:41:44.472Z,5.15
2018-07-02T09:44:15.227Z,72.30
2018-07-02T09:46:45.549Z,91.82
2018-07-02T09:49:15.901Z,163.07
2018-07-02T09:51:46.483Z,113.28
2018-07-02T09:54:16.816Z,580.95
2018-07-02T09:56:47.147Z,60.35
2018-07-02T09:59:17.498Z,79.58
2018-07-02T10:01:48.388Z,42.17
2018-07-02T10:04:19.448Z,37.85
2018-07-02T10:06:50.376Z,50.15
2018-07-02T10:09:21.460Z,73.80
2018-07-02T10:11:52.371Z,745.52
2018-07-02T10:14:23.774Z,36.13
2018-07-02T10:16:54.116Z,51.05
2018-07-02T10:19:24.435Z,51.55
2018-07-02T10:21:54.824Z,48.63
2018-07-02T10:24:25.124Z,49.13
2018-07-02T10:26:55.518Z,208.75
2018-07-02T10:29:25.845Z,49.08
2018-07-02T10:31:56.377Z,57.58
2018-07-02T10:34:26.809Z,46.10
2018-07-02T10:36:57.097Z,47.58
2018-07-02T10:39:27.150Z,44.38
2018-07-02T10:41:57.507Z,39.95
2018-07-02T10:44:27.835Z,51.00
2018-07-02T10:46:58.215Z,61.85
2018-07-02T10:49:28.561Z,43.65
2018-07-02T10:51:58.868Z,43.68
2018-07-02T10:54:29.230Z,45.98
2018-07-02T10:56:59.520Z,47.27
2018-07-02T10:59:30.199Z,45.38
2018-07-02T11:02:00.524Z,38.98
2018-07-02T11:04:30.832Z,197.70
2018-07-02T11:07:01.161Z,54.55
2018-07-02T11:09:31.670Z,43.05
2018-07-02T11:12:02.045Z,45.12
2018-07-02T11:14:32.354Z,41.00
2018-07-02T11:17:02.724Z,37.67
2018-07-02T11:19:33.233Z,43.35
2018-07-02T11:22:03.876Z,34.33
2018-07-02T11:24:34.300Z,51.83
2018-07-02T11:27:04.331Z,67.17
2018-07-02T11:29:34.703Z,45.08
2018-07-02T11:32:05.404Z,126.55
2018-07-02T11:34:35.779Z,66.20
2018-07-02T11:37:06.508Z,60.90
2018-07-02T11:39:36.856Z,51.98
2018-07-02T11:42:08.148Z,54.08
2018-07-02T11:44:38.487Z,54.05
2018-07-02T11:47:08.800Z,86.28
2018-07-02T11:49:39.204Z,60.60
2018-07-02T11:52:09.677Z,49.83
2018-07-02T11:54:40.021Z,45.05
2018-07-02T11:57:10.376Z,47.08
2018-07-02T11:59:40.713Z,44.35
2018-07-02T12:02:11.032Z,56.85
2018-07-02T12:04:41.336Z,51.45
2018-07-02T12:07:11.695Z,55.92
2018-07-02T12:09:42.187Z,51.92
2018-07-02T12:12:12.310Z,84.83
2018-07-02T12:14:42.626Z,47.33
2018-07-02T12:17:12.961Z,54.83
2018-07-02T12:19:43.364Z,286.60
2018-07-02T12:22:13.692Z,73.50
2018-07-02T12:24:44.107Z,61.13
2018-07-02T12:27:14.131Z,74.27
2018-07-02T12:29:44.453Z,60.05
2018-07-02T12:32:14.764Z,49.55
2018-07-02T12:34:45.056Z,54.80
2018-07-02T12:37:15.476Z,72.45
2018-07-02T12:39:45.803Z,54.73
2018-07-02T12:42:16.153Z,59.88
2018-07-02T12:44:46.497Z,46.10
2018-07-02T12:47:16.824Z,52.85
2018-07-02T12:49:47.188Z,56.68
2018-07-02T12:52:17.495Z,49.48
2018-07-02T12:54:47.842Z,85.15
2018-07-02T12:57:18.138Z,50.48
2018-07-02T12:59:48.245Z,52.40
2018-07-02T13:02:18.029Z,73.05
2018-07-02T13:04:48.524Z,88.87
2018-07-02T13:07:18.839Z,54.83
2018-07-02T13:09:49.308Z,47.05
2018-07-02T13:12:19.631Z,50.55
2018-07-02T13:14:49.644Z,44.53
2018-07-02T13:17:19.977Z,46.18
2018-07-02T13:19:50.347Z,42.93
2018-07-02T13:22:20.672Z,47.85
2018-07-02T13:24:51.091Z,52.85
2018-07-02T13:27:21.757Z,58.80
2018-07-02T13:29:52.178Z,40.25
2018-07-02T13:32:22.707Z,63.17
2018-07-02T13:34:53.347Z,65.75
2018-07-02T13:37:23.652Z,53.73
2018-07-02T13:39:54.040Z,53.08
2018-07-02T13:42:24.332Z,58.60
2018-07-02T13:44:54.633Z,46.55
2018-07-02T13:47:24.976Z,46.20
2018-07-02T13:49:55.684Z,60.55
2018-07-02T13:52:25.440Z,108.63
2018-07-02T13:54:55.193Z,42.37
2018-07-02T13:57:24.951Z,51.10
2018-07-02T13:59:54.664Z,37.77
2018-07-02T14:02:24.434Z,87.75
2018-07-02T14:04:54.485Z,55.70
2018-07-02T14:07:24.795Z,40.45
2018-07-02T14:09:54.753Z,35.17
2018-07-02T14:12:24.509Z,49.73
2018-07-02T14:14:54.832Z,60.12
2018-07-02T14:17:25.116Z,36.13
2018-07-02T14:19:54.992Z,52.15
2018-07-02T14:22:25.900Z,84.15
2018-07-02T14:24:55.736Z,45.93
2018-07-02T14:27:25.645Z,35.83
2018-07-02T14:29:55.585Z,43.97
2018-07-02T14:32:25.401Z,35.10
2018-07-02T14:34:55.270Z,35.10
2018-07-02T14:37:25.032Z,38.07
2018-07-02T14:39:54.904Z,38.20
2018-07-02T14:42:24.847Z,38.17
2018-07-02T14:44:56.110Z,43.70
2018-07-02T14:47:26.692Z,33.67
2018-07-02T14:49:57.039Z,41.28
2018-07-02T14:52:28.132Z,35.50
2018-07-02T14:54:58.695Z,37.10
2018-07-02T14:57:29.009Z,35.55
2018-07-02T14:59:59.533Z,41.98
2018-07-02T15:02:30.315Z,36.42
2018-07-02T15:05:00.933Z,36.45
2018-07-02T15:07:31.186Z,37.78
2018-07-02T15:10:01.492Z,41.92
2018-07-02T15:12:31.784Z,56.10
2018-07-02T15:15:02.146Z,37.70
2018-07-02T15:17:32.771Z,37.20
2018-07-02T15:20:03.813Z,46.05
2018-07-02T15:22:34.124Z,38.50
2018-07-02T15:25:04.553Z,40.40
2018-07-02T15:27:34.860Z,36.00
2018-07-02T15:30:05.336Z,41.20
2018-07-02T15:32:35.693Z,40.58
2018-07-02T15:35:05.968Z,36.80
2018-07-02T15:37:36.275Z,43.02
2018-07-02T15:40:06.711Z,35.55
2018-07-02T15:42:37.080Z,41.35
2018-07-02T15:45:07.478Z,43.63
2018-07-02T15:47:37.543Z,37.53
2018-07-02T15:50:07.895Z,35.08
2018-07-02T15:52:38.213Z,35.45
2018-07-02T15:55:08.516Z,35.25
2018-07-02T15:57:38.860Z,33.30
2018-07-02T16:00:09.281Z,46.58
2018-07-02T16:02:39.379Z,41.20
2018-07-02T16:05:09.763Z,36.38
2018-07-02T16:07:40.117Z,36.65
2018-07-02T16:10:10.560Z,37.03
2018-07-02T16:12:40.942Z,45.30
2018-07-02T16:15:11.283Z,58.85
2018-07-02T16:17:41.589Z,36.58
2018-07-02T16:20:11.351Z,38.65
2018-07-02T16:22:41.680Z,41.88
2018-07-02T16:25:12.183Z,36.33
2018-07-02T16:27:42.564Z,34.48
2018-07-02T16:30:13.062Z,37.73
2018-07-02T16:32:43.608Z,37.33
2018-07-02T16:35:13.468Z,36.40
2018-07-02T16:37:43.870Z,35.13
2018-07-02T16:40:14.765Z,37.13
2018-07-02T16:42:44.777Z,42.80
2018-07-02T16:45:14.650Z,33.10
2018-07-02T16:47:44.420Z,33.30
2018-07-02T16:50:14.163Z,30.60
2018-07-02T16:52:44.892Z,33.77
2018-07-02T16:55:14.637Z,38.47
2018-07-02T16:57:44.828Z,43.30
2018-07-02T17:00:15.194Z,33.53
2018-07-02T17:02:46.012Z,39.03
2018-07-02T17:05:15.971Z,38.33
2018-07-02T17:07:45.864Z,31.77
2018-07-02T17:10:15.939Z,40.27
2018-07-02T17:12:45.705Z,35.80
2018-07-02T17:15:15.527Z,38.23
2018-07-02T17:17:45.340Z,42.77
2018-07-02T17:20:15.280Z,34.50
2018-07-02T17:22:45.240Z,36.97
2018-07-02T17:25:15.021Z,36.17
2018-07-02T17:27:44.756Z,40.10
2018-07-02T17:30:14.596Z,35.17
2018-07-02T17:32:44.346Z,35.53
2018-07-02T17:35:14.827Z,37.60
2018-07-02T17:37:44.724Z,38.83
2018-07-02T17:40:14.608Z,39.03
2018-07-02T17:42:44.428Z,37.87
2018-07-02T17:45:15.046Z,26.27
2018-07-02T17:47:45.006Z,29.47
2018-07-02T17:50:14.897Z,27.00
2018-07-02T17:52:45.368Z,34.87
2018-07-02T17:55:15.259Z,28.17
2018-07-02T17:57:45.121Z,1.40
2018-07-02T18:00:14.968Z,2.53
2018-07-02T18:02:45.402Z,2.63
2018-07-02T18:05:15.589Z,1.50
2018-07-02T18:07:45.376Z,2.67
2018-07-02T18:10:15.264Z,2.43
2018-07-02T18:12:45.316Z,2.43
2018-07-02T18:15:15.381Z,1.53
2018-07-02T18:17:45.971Z,2.33
2018-07-02T18:20:16.085Z,1.70
2018-07-02T18:22:45.905Z,1.53
2018-07-02T18:25:15.659Z,1.10
2018-07-02T18:27:45.376Z,1.50
2018-07-02T18:30:15.484Z,2.00
2018-07-02T18:32:45.272Z,2.17
2018-07-02T18:35:14.996Z,1.40
2018-07-02T18:37:44.724Z,2.27
2018-07-02T18:40:14.459Z,2.60
2018-07-02T18:42:44.192Z,1.87
2018-07-02T18:45:13.950Z,1.60
2018-07-02T18:47:43.656Z,1.33
2018-07-02T18:50:13.381Z,1.60
2018-07-02T18:52:43.475Z,4.60
2018-07-02T18:55:13.199Z,2.33
2018-07-02T18:57:42.942Z,2.07
2018-07-02T19:00:12.719Z,3.07
2018-07-02T19:02:42.432Z,1.30
2018-07-02T19:05:12.201Z,2.83
2018-07-02T19:07:42.202Z,1.57
2018-07-02T19:10:12.129Z,1.50
2018-07-02T19:12:41.582Z,1.50
2018-07-02T19:15:11.348Z,1.80
2018-07-02T19:17:41.100Z,2.50
2018-07-02T19:20:10.869Z,3.37
2018-07-02T19:22:40.355Z,3.50
2018-07-02T19:25:10.185Z,2.53
2018-07-02T19:27:39.976Z,3.13
2018-07-02T19:30:09.737Z,5.03
2018-07-02T19:32:39.471Z,4.43
2018-07-02T19:35:09.224Z,3.27
2018-07-02T19:37:38.935Z,3.13
2018-07-02T19:40:08.956Z,3.90
2018-07-02T19:42:38.704Z,2.83
2018-07-02T19:45:08.460Z,4.53
2018-07-02T19:47:38.215Z,2.67
2018-07-02T19:50:08.021Z,3.50
2018-07-02T19:52:37.796Z,2.00
2018-07-02T19:55:07.414Z,2.17
2018-07-02T19:57:37.712Z,2.97
2018-07-02T20:00:07.627Z,3.40
2018-07-02T20:02:37.399Z,2.87
2018-07-02T20:05:07.244Z,2.33
2018-07-02T20:07:37.008Z,2.70
2018-07-02T20:10:06.736Z,3.27
2018-07-02T20:12:36.326Z,3.17
2018-07-02T20:15:06.101Z,2.30
2018-07-02T20:17:35.856Z,2.17
2018-07-02T20:20:09.507Z,2.67
2018-07-02T20:22:39.219Z,2.93
2018-07-02T20:25:09.503Z,1.70
2018-07-02T20:27:39.561Z,3.03
2018-07-02T20:30:10.372Z,4.10
2018-07-02T20:32:40.076Z,4.17
2018-07-02T20:35:10.171Z,3.70
2018-07-02T20:37:39.923Z,3.30
2018-07-02T20:40:09.676Z,4.33
2018-07-02T20:42:39.285Z,5.13
2018-07-02T20:45:09.714Z,3.80
2018-07-02T20:47:39.756Z,4.70
2018-07-02T20:50:09.512Z,4.97
2018-07-02T20:52:39.227Z,5.27
2018-07-02T20:55:09.274Z,4.27
2018-07-02T20:57:38.968Z,4.80
2018-07-02T21:00:09.117Z,6.83
2018-07-02T21:02:38.832Z,5.77
2018-07-02T21:05:08.678Z,6.50
2018-07-02T21:07:38.576Z,5.67
2018-07-02T21:10:08.379Z,10.40
2018-07-02T21:12:38.129Z,43.93
2018-07-02T21:15:07.924Z,29.47
2018-07-02T21:17:37.644Z,19.13
2018-07-02T21:20:07.428Z,14.10
2018-07-02T21:22:37.168Z,14.57
2018-07-02T21:25:06.972Z,9.63
2018-07-02T21:27:36.502Z,8.53
2018-07-02T21:30:07.783Z,6.70
2018-07-02T21:32:38.136Z,7.27
2018-07-02T21:35:08.723Z,8.17
2018-07-02T21:37:38.444Z,7.57
2018-07-02T21:40:08.625Z,6.93
2018-07-02T21:42:38.398Z,5.47
2018-07-02T21:45:08.175Z,5.23
2018-07-02T21:47:37.983Z,4.20
2018-07-02T21:50:07.783Z,7.87
2018-07-02T21:52:37.619Z,6.33
2018-07-02T21:55:07.392Z,5.53
2018-07-02T21:57:37.124Z,5.00
2018-07-02T22:00:09.874Z,4.20
2018-07-02T22:02:39.385Z,5.17
2018-07-02T22:05:09.384Z,4.77
2018-07-02T22:07:39.382Z,4.83
2018-07-02T22:10:09.213Z,5.00
2018-07-02T22:12:39.172Z,5.47
2018-07-02T22:15:08.928Z,5.63
2018-07-02T22:17:38.652Z,5.17
2018-07-02T22:20:08.852Z,5.87
2018-07-02T22:22:38.581Z,4.87
2018-07-02T22:25:08.079Z,4.50
2018-07-02T22:27:37.536Z,6.53
2018-07-02T22:30:07.557Z,4.53
2018-07-02T22:32:36.996Z,4.20
2018-07-02T22:35:07.005Z,5.37
2018-07-02T22:37:36.575Z,4.57
2018-07-02T22:40:06.412Z,4.93
2018-07-02T22:42:36.172Z,5.93
2018-07-02T22:45:06.048Z,5.20
2018-07-02T22:47:35.778Z,6.87
2018-07-02T22:50:05.768Z,4.20
2018-07-02T22:52:35.528Z,5.87
2018-07-02T22:55:05.297Z,7.17
2018-07-02T22:57:35.073Z,6.70
2018-07-02T23:00:05.303Z,6.00
2018-07-02T23:02:34.463Z,4.63
2018-07-02T23:05:03.989Z,4.13
2018-07-02T23:07:33.452Z,5.30
2018-07-02T23:10:03.405Z,5.47
2018-07-02T23:12:33.131Z,4.67
2018-07-02T23:15:02.812Z,4.17
2018-07-02T23:17:32.268Z,5.40
2018-07-02T23:20:01.963Z,4.33
2018-07-02T23:22:41.624Z,4.63
2018-07-02T23:25:11.089Z,4.47
2018-07-02T23:27:40.764Z,5.77
2018-07-02T23:30:10.483Z,4.00
2018-07-02T23:32:40.203Z,4.27
2018-07-02T23:35:09.632Z,6.80
2018-07-02T23:37:39.387Z,7.03
2018-07-02T23:40:08.809Z,4.97
2018-07-02T23:42:38.523Z,6.50
2018-07-02T23:45:08.252Z,4.90
2018-07-02T23:47:37.711Z,4.30
2018-07-02T23:50:07.407Z,6.57
2018-07-02T23:52:37.541Z,6.77
2018-07-02T23:55:07.705Z,5.03
2018-07-02T23:57:37.459Z,4.73
